createdAt,value
2022-11-13T00:00:24.338Z,6.78
2022-11-13T00:03:10.632Z,7.60
2022-11-13T00:06:00.459Z,6.88
2022-11-13T00:08:46.765Z,6.22
2022-11-13T00:11:33.401Z,6.10
2022-11-13T00:14:19.687Z,6.47
2022-11-13T00:17:06.940Z,6.10
2022-11-13T00:19:53.000Z,5.95
2022-11-13T00:22:39.276Z,6.85
2022-11-13T00:25:25.291Z,6.88
2022-11-13T00:28:11.843Z,5.60
2022-11-13T00:31:00.329Z,6.28
2022-11-13T00:34:14.174Z,6.18
2022-11-13T00:36:55.357Z,6.35
2022-11-13T00:39:41.340Z,6.82
2022-11-13T00:42:27.449Z,6.38
2022-11-13T00:45:14.109Z,6.28
2022-11-13T00:48:00.183Z,6.20
2022-11-13T00:50:47.821Z,6.25
2022-11-13T00:53:34.298Z,5.40
2022-11-13T00:56:20.380Z,6.35
2022-11-13T00:59:06.609Z,6.28
2022-11-13T01:01:52.721Z,5.90
2022-11-13T01:04:38.956Z,6.25
2022-11-13T01:07:26.396Z,6.13
2022-11-13T01:10:13.303Z,5.72
2022-11-13T01:12:59.402Z,6.63
2022-11-13T01:15:46.447Z,6.05
2022-11-13T01:18:32.696Z,6.40
2022-11-13T01:21:21.099Z,6.80
2022-11-13T01:24:08.916Z,6.25
2022-11-13T01:26:55.044Z,5.65
2022-11-13T01:29:41.234Z,6.43
2022-11-13T01:32:27.330Z,6.32
2022-11-13T01:35:13.589Z,6.97
2022-11-13T01:37:59.784Z,7.40
2022-11-13T01:40:47.787Z,6.40
2022-11-13T01:43:37.173Z,8.43
2022-11-13T01:46:27.731Z,7.57
2022-11-13T01:49:25.693Z,7.18
2022-11-13T01:52:15.935Z,6.60
2022-11-13T01:55:06.025Z,7.22
2022-11-13T01:57:53.417Z,6.85
2022-11-13T02:00:39.596Z,6.60
2022-11-13T02:03:25.845Z,7.13
2022-11-13T02:06:12.062Z,6.60
2022-11-13T02:08:58.317Z,5.90
2022-11-13T02:11:45.474Z,6.30
2022-11-13T02:14:34.532Z,6.75
2022-11-13T02:17:27.424Z,7.22
2022-11-13T02:20:15.224Z,6.70
2022-11-13T02:23:12.799Z,7.03
2022-11-13T02:26:00.903Z,7.10
2022-11-13T02:28:47.021Z,6.03
2022-11-13T02:31:33.299Z,5.82
2022-11-13T02:34:19.412Z,5.45
2022-11-13T02:37:05.591Z,5.28
2022-11-13T02:39:51.780Z,5.10
2022-11-13T02:42:39.134Z,5.25
2022-11-13T02:45:25.617Z,4.78
2022-11-13T02:48:12.125Z,4.60
2022-11-13T02:50:58.294Z,5.13
2022-11-13T02:53:44.642Z,4.95
2022-11-13T02:56:30.982Z,4.55
2022-11-13T02:59:18.549Z,4.68
2022-11-13T03:02:04.634Z,4.88
2022-11-13T03:05:11.447Z,4.40
2022-11-13T03:07:56.946Z,4.38
2022-11-13T03:10:43.134Z,4.15
2022-11-13T03:13:29.315Z,4.75
2022-11-13T03:16:18.777Z,4.88
2022-11-13T03:19:05.318Z,5.25
2022-11-13T03:21:51.652Z,5.28
2022-11-13T03:24:37.874Z,6.00
2022-11-13T03:27:23.950Z,6.40
2022-11-13T03:30:11.277Z,5.88
2022-11-13T03:32:58.877Z,5.57
2022-11-13T03:35:47.132Z,5.15
2022-11-13T03:38:34.266Z,5.10
2022-11-13T03:41:20.688Z,5.50
2022-11-13T03:44:06.912Z,5.57
2022-11-13T03:46:53.128Z,5.30
2022-11-13T03:49:40.733Z,5.32
2022-11-13T03:52:26.779Z,5.15
2022-11-13T03:55:12.901Z,5.53
2022-11-13T03:57:59.656Z,5.25
2022-11-13T04:00:46.971Z,5.30
2022-11-13T04:03:33.337Z,5.80
2022-11-13T04:06:21.874Z,5.65
2022-11-13T04:09:07.908Z,5.78
2022-11-13T04:11:54.073Z,5.65
2022-11-13T04:14:40.381Z,6.20
2022-11-13T04:17:26.562Z,6.10
2022-11-13T04:20:13.351Z,5.53
2022-11-13T04:23:01.217Z,5.20
2022-11-13T04:25:49.525Z,5.45
2022-11-13T04:28:35.504Z,5.40
2022-11-13T04:31:21.696Z,5.78
2022-11-13T04:34:07.780Z,5.78
2022-11-13T04:36:53.938Z,5.38
2022-11-13T04:39:41.413Z,5.10
2022-11-13T04:42:45.411Z,5.30
2022-11-13T04:45:31.862Z,4.97
2022-11-13T04:48:18.000Z,5.53
2022-11-13T04:51:04.215Z,5.43
2022-11-13T04:53:50.292Z,5.60
2022-11-13T04:56:37.875Z,6.55
2022-11-13T04:59:24.506Z,5.35
2022-11-13T05:02:10.637Z,5.13
2022-11-13T05:05:01.806Z,5.30
2022-11-13T05:07:50.748Z,5.15
2022-11-13T05:10:36.958Z,4.97
2022-11-13T05:13:24.570Z,5.25
2022-11-13T05:16:13.559Z,5.50
2022-11-13T05:18:59.917Z,5.65
2022-11-13T05:21:46.250Z,6.05
2022-11-13T05:24:32.577Z,5.32
2022-11-13T05:27:19.046Z,5.85
2022-11-13T05:30:07.783Z,5.85
2022-11-13T05:32:54.003Z,5.45
2022-11-13T05:35:39.948Z,5.00
2022-11-13T05:38:26.097Z,4.90
2022-11-13T05:41:14.326Z,4.60
2022-11-13T05:44:00.607Z,5.13
2022-11-13T05:46:48.183Z,5.03
2022-11-13T05:49:34.224Z,5.43
2022-11-13T05:52:20.509Z,5.53
2022-11-13T05:55:07.931Z,5.55
2022-11-13T05:57:54.211Z,5.03
2022-11-13T06:00:40.180Z,5.80
2022-11-13T06:03:27.875Z,5.93
2022-11-13T06:06:16.042Z,5.78
2022-11-13T06:09:05.073Z,5.63
2022-11-13T06:11:51.305Z,4.80
2022-11-13T06:14:37.279Z,5.78
2022-11-13T06:17:23.441Z,5.70
2022-11-13T06:20:11.651Z,5.53
2022-11-13T06:22:59.012Z,5.75
2022-11-13T06:25:45.641Z,5.72
2022-11-13T06:28:31.898Z,5.93
2022-11-13T06:31:20.189Z,5.60
2022-11-13T06:34:07.147Z,5.70
2022-11-13T06:36:54.435Z,5.57
2022-11-13T06:39:40.845Z,4.80
2022-11-13T06:42:26.768Z,5.20
2022-11-13T06:45:13.013Z,5.85
2022-11-13T06:47:59.121Z,5.57
2022-11-13T06:50:48.411Z,5.40
2022-11-13T06:53:36.616Z,5.32
2022-11-13T06:56:23.193Z,5.25
2022-11-13T06:59:10.100Z,4.95
2022-11-13T07:01:56.206Z,5.03
2022-11-13T07:04:42.342Z,4.90
2022-11-13T07:07:28.471Z,5.22
2022-11-13T07:10:16.279Z,4.80
2022-11-13T07:13:02.662Z,5.07
2022-11-13T07:15:48.549Z,4.95
2022-11-13T07:18:35.265Z,4.75
2022-11-13T07:21:22.922Z,5.13
2022-11-13T07:24:14.046Z,5.63
2022-11-13T07:27:04.296Z,8.02
2022-11-13T07:29:50.152Z,5.40
2022-11-13T07:32:36.563Z,5.20
2022-11-13T07:35:22.647Z,5.22
2022-11-13T07:38:08.685Z,5.80
2022-11-13T07:40:55.106Z,5.07
2022-11-13T07:43:42.795Z,4.80
2022-11-13T07:46:28.900Z,6.00
2022-11-13T07:49:15.238Z,5.50
2022-11-13T07:52:01.348Z,4.88
2022-11-13T07:54:47.293Z,5.15
2022-11-13T07:57:33.365Z,4.70
2022-11-13T08:00:21.011Z,5.30
2022-11-13T08:03:08.728Z,4.40
2022-11-13T08:06:01.584Z,4.70
2022-11-13T08:08:49.222Z,3.53
2022-11-13T08:11:35.643Z,4.03
2022-11-13T08:14:21.644Z,4.72
2022-11-13T08:17:08.997Z,5.05
2022-11-13T08:19:55.129Z,4.93
2022-11-13T08:22:41.004Z,4.75
2022-11-13T08:25:27.520Z,5.75
2022-11-13T08:28:14.126Z,5.20
2022-11-13T08:31:00.429Z,5.30
2022-11-13T08:33:48.048Z,5.40
2022-11-13T08:36:34.132Z,4.97
2022-11-13T08:39:20.183Z,4.30
2022-11-13T08:42:06.687Z,4.80
2022-11-13T08:44:52.917Z,4.55
2022-11-13T08:47:39.243Z,5.07
2022-11-13T08:50:26.995Z,5.18
2022-11-13T08:53:13.089Z,4.40
2022-11-13T08:56:01.364Z,4.60
2022-11-13T08:58:47.802Z,9.45
2022-11-13T09:01:34.178Z,6.22
2022-11-13T09:04:20.225Z,4.63
2022-11-13T09:07:07.794Z,4.47
2022-11-13T09:09:54.173Z,4.50
2022-11-13T09:12:40.364Z,4.65
2022-11-13T09:15:26.698Z,5.00
2022-11-13T09:18:13.120Z,4.45
2022-11-13T09:21:02.611Z,4.80
2022-11-13T09:23:50.333Z,4.88
2022-11-13T09:26:36.847Z,4.78
2022-11-13T09:29:23.339Z,4.75
2022-11-13T09:32:09.726Z,4.93
2022-11-13T09:34:55.961Z,4.07
2022-11-13T09:37:41.840Z,5.10
2022-11-13T09:40:34.606Z,4.00
2022-11-13T09:43:29.687Z,4.72
2022-11-13T09:46:21.311Z,4.60
2022-11-13T09:49:15.897Z,5.75
2022-11-13T09:52:10.694Z,5.05
2022-11-13T09:54:57.129Z,4.15
2022-11-13T09:57:52.068Z,5.13
2022-11-13T10:00:38.751Z,4.82
2022-11-13T10:03:54.649Z,4.30
2022-11-13T10:06:52.680Z,4.82
2022-11-13T10:09:49.279Z,4.60
2022-11-13T10:12:36.243Z,4.10
2022-11-13T10:15:23.784Z,3.85
2022-11-13T10:18:14.940Z,3.92
2022-11-13T10:21:18.346Z,4.35
2022-11-13T10:24:14.541Z,4.10
2022-11-13T10:27:00.803Z,5.00
2022-11-13T10:29:49.159Z,4.55
2022-11-13T10:32:37.103Z,5.57
2022-11-13T10:35:45.459Z,4.63
2022-11-13T10:38:36.838Z,4.10
2022-11-13T10:41:23.282Z,5.05
2022-11-13T10:44:21.131Z,6.25
2022-11-13T10:47:15.881Z,4.63
2022-11-13T10:50:12.117Z,3.72
2022-11-13T10:52:59.821Z,3.90
2022-11-13T10:55:47.217Z,3.47
2022-11-13T10:58:33.577Z,3.65
2022-11-13T11:01:23.779Z,3.58
2022-11-13T11:04:14.801Z,3.20
2022-11-13T11:07:20.636Z,3.00
2022-11-13T11:10:22.540Z,2.65
2022-11-13T11:13:13.072Z,3.30
2022-11-13T11:16:02.670Z,3.15
2022-11-13T11:18:54.954Z,3.25
2022-11-13T11:21:43.747Z,2.83
2022-11-13T11:24:37.791Z,2.80
2022-11-13T11:27:29.360Z,2.55
2022-11-13T11:30:21.960Z,2.78
2022-11-13T11:33:14.115Z,2.85
2022-11-13T11:36:07.013Z,2.90
2022-11-13T11:39:00.271Z,2.53
2022-11-13T11:41:56.755Z,2.73
2022-11-13T11:44:55.915Z,2.95
2022-11-13T11:47:42.482Z,2.78
2022-11-13T11:50:38.786Z,2.80
2022-11-13T11:53:37.265Z,2.75
2022-11-13T11:56:32.388Z,2.58
2022-11-13T11:59:31.319Z,2.90
2022-11-13T12:02:50.356Z,3.30
2022-11-13T12:05:45.977Z,2.60
2022-11-13T12:08:38.902Z,3.03
2022-11-13T12:11:29.805Z,3.40
2022-11-13T12:14:24.059Z,2.80
2022-11-13T12:17:28.790Z,2.72
2022-11-13T12:20:25.590Z,2.88
2022-11-13T12:23:38.262Z,3.00
2022-11-13T12:26:28.752Z,2.90
2022-11-13T12:29:26.029Z,2.60
2022-11-13T12:32:29.301Z,2.70
2022-11-13T12:35:19.739Z,2.63
2022-11-13T12:38:18.534Z,3.20
2022-11-13T12:41:21.349Z,2.38
2022-11-13T12:44:34.260Z,3.45
2022-11-13T12:47:21.257Z,3.22
2022-11-13T12:50:30.319Z,2.72
2022-11-13T12:53:27.892Z,3.03
2022-11-13T12:56:17.624Z,9.90
2022-11-13T12:59:29.868Z,7.20
2022-11-13T13:02:31.022Z,4.40
2022-11-13T13:05:26.522Z,6.53
2022-11-13T13:08:45.436Z,5.75
2022-11-13T13:11:40.326Z,4.38
2022-11-13T13:14:38.685Z,3.97
2022-11-13T13:17:25.587Z,3.80
2022-11-13T13:20:31.789Z,3.33
2022-11-13T13:23:28.214Z,2.88
2022-11-13T13:26:18.356Z,3.25
2022-11-13T13:29:17.835Z,2.88
2022-11-13T13:32:20.778Z,2.88
2022-11-13T13:35:14.660Z,2.75
2022-11-13T13:38:13.127Z,3.05
2022-11-13T13:41:18.056Z,2.45
2022-11-13T13:44:31.097Z,3.20
2022-11-13T13:47:25.400Z,4.25
2022-11-13T13:50:16.784Z,4.95
2022-11-13T13:53:04.549Z,2.80
2022-11-13T13:55:55.319Z,3.45
2022-11-13T13:58:42.286Z,2.28
2022-11-13T14:01:30.681Z,2.30
2022-11-13T14:04:20.549Z,2.13
2022-11-13T14:07:19.733Z,2.42
2022-11-13T14:10:17.511Z,1.95
2022-11-13T14:13:04.583Z,1.85
2022-11-13T14:16:00.550Z,2.35
2022-11-13T14:18:47.070Z,2.55
2022-11-13T14:21:33.547Z,2.30
2022-11-13T14:24:23.488Z,2.45
2022-11-13T14:27:24.183Z,2.28
2022-11-13T14:30:23.782Z,2.40
2022-11-13T14:33:11.943Z,2.53
2022-11-13T14:35:59.295Z,3.65
2022-11-13T14:38:52.140Z,6.85
2022-11-13T14:41:42.487Z,4.25
2022-11-13T14:44:32.779Z,3.65
2022-11-13T14:47:25.035Z,3.45
2022-11-13T14:50:23.759Z,2.58
2022-11-13T14:53:11.741Z,3.15
2022-11-13T14:55:59.663Z,2.90
2022-11-13T14:58:47.768Z,2.70
2022-11-13T15:01:35.372Z,2.88
2022-11-13T15:04:22.155Z,2.80
2022-11-13T15:07:21.964Z,3.08
2022-11-13T15:10:13.758Z,2.80
2022-11-13T15:13:00.154Z,2.45
2022-11-13T15:15:46.572Z,2.70
2022-11-13T15:18:35.403Z,3.35
2022-11-13T15:21:21.497Z,4.07
2022-11-13T15:24:08.163Z,10.15
2022-11-13T15:26:54.610Z,6.00
2022-11-13T15:29:41.200Z,3.90
2022-11-13T15:32:28.913Z,5.35
2022-11-13T15:35:19.907Z,4.05
2022-11-13T15:38:06.489Z,4.68
2022-11-13T15:40:52.661Z,4.28
2022-11-13T15:43:39.240Z,3.00
2022-11-13T15:46:26.430Z,3.53
2022-11-13T15:49:12.650Z,3.25
2022-11-13T15:52:00.025Z,2.83
2022-11-13T15:54:46.614Z,4.18
2022-11-13T15:57:32.714Z,3.70
2022-11-13T16:00:24.757Z,3.40
2022-11-13T16:03:12.345Z,3.53
2022-11-13T16:05:59.062Z,4.50
2022-11-13T16:08:47.529Z,6.75
2022-11-13T16:11:35.104Z,13.95
2022-11-13T16:14:24.748Z,6.45
2022-11-13T16:17:14.051Z,6.63
2022-11-13T16:20:00.506Z,5.13
2022-11-13T16:22:46.920Z,8.48
2022-11-13T16:25:34.813Z,5.75
2022-11-13T16:28:20.892Z,7.03
2022-11-13T16:31:07.161Z,4.53
2022-11-13T16:33:53.325Z,7.35
2022-11-13T16:36:39.704Z,9.00
2022-11-13T16:39:25.858Z,8.05
2022-11-13T16:42:14.381Z,5.78
2022-11-13T16:45:00.636Z,21.63
2022-11-13T16:47:47.748Z,12.23
2022-11-13T16:50:36.806Z,4.72
2022-11-13T16:53:23.023Z,4.00
2022-11-13T16:56:14.781Z,3.75
2022-11-13T16:59:02.573Z,7.18
2022-11-13T17:01:48.895Z,4.97
2022-11-13T17:04:35.001Z,7.20
2022-11-13T17:07:21.368Z,6.97
2022-11-13T17:10:30.224Z,5.53
2022-11-13T17:13:14.707Z,5.72
2022-11-13T17:16:02.739Z,3.30
2022-11-13T17:18:50.762Z,3.22
2022-11-13T17:21:41.313Z,2.83
2022-11-13T17:24:30.317Z,3.35
2022-11-13T17:27:16.669Z,3.50
2022-11-13T17:30:03.596Z,12.77
2022-11-13T17:32:51.394Z,19.00
2022-11-13T17:35:37.609Z,7.75
2022-11-13T17:38:24.003Z,8.15
2022-11-13T17:41:12.136Z,8.27
2022-11-13T17:44:01.468Z,9.27
2022-11-13T17:46:48.370Z,9.23
2022-11-13T17:49:35.842Z,11.52
2022-11-13T17:52:21.953Z,5.68
2022-11-13T17:55:11.762Z,8.30
2022-11-13T17:58:00.458Z,9.77
2022-11-13T18:00:46.543Z,11.15
2022-11-13T18:03:32.780Z,10.38
2022-11-13T18:06:21.179Z,12.25
2022-11-13T18:09:07.693Z,9.00
2022-11-13T18:11:54.127Z,7.18
2022-11-13T18:14:40.764Z,5.78
2022-11-13T18:17:27.300Z,5.20
2022-11-13T18:20:14.075Z,4.90
2022-11-13T18:23:01.764Z,5.70
2022-11-13T18:25:48.189Z,7.47
2022-11-13T18:28:34.368Z,7.93
2022-11-13T18:31:21.483Z,10.45
2022-11-13T18:34:09.897Z,10.45
2022-11-13T18:36:56.130Z,8.30
2022-11-13T18:39:43.722Z,9.48
2022-11-13T18:42:30.165Z,7.28
2022-11-13T18:45:16.661Z,6.95
2022-11-13T18:48:03.296Z,6.05
2022-11-13T18:50:56.646Z,11.23
2022-11-13T18:53:45.466Z,11.98
2022-11-13T18:56:33.827Z,11.98
2022-11-13T18:59:20.053Z,15.27
2022-11-13T19:02:06.687Z,21.63
2022-11-13T19:04:53.221Z,19.25
2022-11-13T19:07:39.230Z,13.15
2022-11-13T19:10:25.454Z,10.32
2022-11-13T19:13:13.004Z,8.82
2022-11-13T19:16:04.830Z,9.50
2022-11-13T19:18:52.989Z,8.38
2022-11-13T19:21:39.127Z,10.77
2022-11-13T19:24:25.418Z,10.68
2022-11-13T19:27:11.828Z,11.60
2022-11-13T19:29:59.655Z,12.48
2022-11-13T19:32:45.981Z,14.25
2022-11-13T19:35:33.458Z,12.75
2022-11-13T19:38:20.350Z,13.98
2022-11-13T19:41:08.669Z,15.55
2022-11-13T19:43:54.960Z,16.50
2022-11-13T19:46:44.885Z,13.27
2022-11-13T19:49:31.192Z,12.70
2022-11-13T19:52:17.475Z,13.25
2022-11-13T19:55:03.826Z,11.82
2022-11-13T19:57:50.602Z,11.27
2022-11-13T20:00:37.151Z,11.43
2022-11-13T20:03:26.079Z,12.15
2022-11-13T20:06:14.635Z,10.82
2022-11-13T20:09:02.788Z,11.30
2022-11-13T20:11:48.919Z,11.57
2022-11-13T20:14:38.409Z,10.57
2022-11-13T20:17:24.987Z,10.50
2022-11-13T20:20:12.952Z,10.48
2022-11-13T20:22:59.451Z,9.38
2022-11-13T20:25:52.642Z,9.43
2022-11-13T20:28:38.885Z,9.60
2022-11-13T20:31:27.579Z,18.58
2022-11-13T20:34:14.556Z,19.33
2022-11-13T20:37:02.531Z,12.30
2022-11-13T20:39:48.823Z,11.40
2022-11-13T20:42:35.173Z,11.23
2022-11-13T20:45:21.395Z,14.23
2022-11-13T20:48:07.642Z,31.77
2022-11-13T20:50:54.142Z,16.50
2022-11-13T20:53:43.927Z,16.30
2022-11-13T20:56:30.090Z,14.63
2022-11-13T20:59:16.435Z,12.38
2022-11-13T21:02:02.698Z,13.05
2022-11-13T21:04:49.221Z,13.10
2022-11-13T21:07:35.452Z,12.75
2022-11-13T21:10:23.054Z,13.18
2022-11-13T21:13:09.566Z,11.02
2022-11-13T21:15:56.040Z,11.13
2022-11-13T21:18:42.518Z,10.90
2022-11-13T21:21:29.070Z,10.80
2022-11-13T21:24:15.354Z,10.65
2022-11-13T21:27:03.064Z,11.23
2022-11-13T21:29:49.295Z,11.07
2022-11-13T21:32:35.408Z,11.30
2022-11-13T21:35:22.917Z,10.38
2022-11-13T21:38:09.486Z,11.63
2022-11-13T21:41:13.770Z,12.00
2022-11-13T21:44:03.227Z,11.82
2022-11-13T21:46:49.385Z,12.05
2022-11-13T21:49:35.444Z,11.02
2022-11-13T21:52:21.784Z,11.70
2022-11-13T21:55:09.752Z,10.52
2022-11-13T21:57:56.023Z,10.85
2022-11-13T22:00:44.746Z,10.63
2022-11-13T22:03:31.058Z,12.65
2022-11-13T22:06:20.327Z,11.73
2022-11-13T22:09:08.907Z,11.73
2022-11-13T22:11:55.286Z,12.85
2022-11-13T22:14:41.406Z,12.45
2022-11-13T22:17:28.901Z,11.43
2022-11-13T22:20:15.845Z,13.85
2022-11-13T22:23:02.313Z,13.40
2022-11-13T22:25:48.405Z,13.18
2022-11-13T22:28:36.242Z,11.48
2022-11-13T22:31:25.398Z,15.07
2022-11-13T22:34:13.060Z,11.43
2022-11-13T22:36:59.742Z,14.18
2022-11-13T22:39:46.040Z,13.98
2022-11-13T22:42:32.206Z,12.82
2022-11-13T22:45:23.848Z,10.95
2022-11-13T22:48:11.479Z,9.70
2022-11-13T22:51:03.584Z,10.07
2022-11-13T22:53:52.889Z,9.73
2022-11-13T22:56:40.756Z,10.48
2022-11-13T22:59:27.038Z,10.23
2022-11-13T23:02:13.003Z,9.10
2022-11-13T23:04:59.293Z,10.13
2022-11-13T23:07:46.618Z,15.63
2022-11-13T23:10:32.820Z,13.45
2022-11-13T23:13:19.162Z,16.45
2022-11-13T23:16:05.401Z,14.77
2022-11-13T23:18:52.207Z,12.63
2022-11-13T23:21:38.668Z,11.00
2022-11-13T23:24:26.024Z,10.20
2022-11-13T23:27:12.968Z,9.82
2022-11-13T23:29:59.352Z,9.10
2022-11-13T23:32:45.686Z,9.30
2022-11-13T23:35:32.030Z,10.57
2022-11-13T23:38:18.517Z,9.38
2022-11-13T23:41:06.904Z,9.88
2022-11-13T23:44:08.298Z,9.45
2022-11-13T23:46:55.738Z,8.70
2022-11-13T23:49:41.727Z,9.90
2022-11-13T23:52:27.838Z,9.40
2022-11-13T23:55:13.985Z,9.15
2022-11-13T23:58:02.961Z,8.70
